createdAt,value
2023-01-18T12:28:23.853Z,124.70
2023-01-18T12:31:06.139Z,121.28
2023-01-18T12:34:01.769Z,135.13
2023-01-18T12:36:49.501Z,129.82
2023-01-18T12:39:54.301Z,130.65
2023-01-18T12:42:55.647Z,126.82
2023-01-18T12:45:41.646Z,126.25
2023-01-18T12:48:28.917Z,128.63
2023-01-18T12:50:58.959Z,126.50
2023-01-18T12:53:44.811Z,130.88
2023-01-18T12:56:20.469Z,128.23
2023-01-18T12:58:56.679Z,121.73
2023-01-18T13:01:31.605Z,132.55
2023-01-18T13:04:11.563Z,127.85
2023-01-18T13:06:41.864Z,144.63
2023-01-18T13:09:14.948Z,125.50
2023-01-18T13:11:44.705Z,123.95
2023-01-18T13:14:41.346Z,128.85
2023-01-18T13:17:18.340Z,129.27
2023-01-18T13:20:00.573Z,131.77
2023-01-18T13:22:40.925Z,127.95
2023-01-18T13:25:25.121Z,130.02
2023-01-18T13:28:05.478Z,126.40
2023-01-18T13:31:02.321Z,121.35
2023-01-18T13:33:34.854Z,117.80
2023-01-18T13:36:08.162Z,130.82
2023-01-18T13:38:49.273Z,115.50
2023-01-18T13:41:27.659Z,116.45
2023-01-18T13:44:32.627Z,109.25
2023-01-18T13:47:01.012Z,114.72
2023-01-18T13:49:45.561Z,117.45
2023-01-18T13:52:30.627Z,121.70
2023-01-18T13:55:02.634Z,117.95
2023-01-18T13:57:33.980Z,126.32
2023-01-18T14:00:03.791Z,119.80
2023-01-18T14:02:45.603Z,122.38
2023-01-18T14:05:25.556Z,127.13
2023-01-18T14:08:00.471Z,122.47
2023-01-18T14:10:30.647Z,122.47
2023-01-18T14:13:02.556Z,115.80
2023-01-18T14:15:47.249Z,112.93
2023-01-18T14:18:25.480Z,118.13
2023-01-18T14:21:33.821Z,122.25
2023-01-18T14:24:18.637Z,114.07
2023-01-18T14:26:48.139Z,115.55
2023-01-18T14:29:30.584Z,116.88
2023-01-18T14:31:59.498Z,115.88
2023-01-18T14:34:31.309Z,115.97
2023-01-18T14:36:59.780Z,120.40
2023-01-18T14:39:30.471Z,122.05
2023-01-18T14:42:02.951Z,120.05
2023-01-18T14:44:58.366Z,116.03
2023-01-18T14:47:31.668Z,124.40
2023-01-18T14:50:04.189Z,122.05
2023-01-18T14:52:34.903Z,124.93
2023-01-18T14:55:04.612Z,116.45
2023-01-18T14:57:32.566Z,116.57
2023-01-18T15:00:18.617Z,115.38
2023-01-18T15:02:47.088Z,121.53
2023-01-18T15:05:18.198Z,122.78
2023-01-18T15:07:54.413Z,122.00
2023-01-18T15:10:24.613Z,125.25
2023-01-18T15:12:59.653Z,116.88
2023-01-18T15:15:36.248Z,116.95
2023-01-18T15:18:11.375Z,113.05
2023-01-18T15:20:52.495Z,113.45
2023-01-18T15:23:22.517Z,118.30
2023-01-18T15:25:52.962Z,113.20
2023-01-18T15:28:24.080Z,111.18
2023-01-18T15:30:54.940Z,124.03
2023-01-18T15:33:25.293Z,120.75
2023-01-18T15:36:03.846Z,126.35
2023-01-18T15:38:32.631Z,114.90
2023-01-18T15:41:19.415Z,119.40
2023-01-18T15:43:48.204Z,127.97
2023-01-18T15:46:17.587Z,119.93
2023-01-18T15:48:53.364Z,118.78
2023-01-18T15:51:22.993Z,123.20
2023-01-18T15:53:56.701Z,132.35
2023-01-18T15:56:33.055Z,123.60
2023-01-18T15:59:07.108Z,122.13
2023-01-18T16:01:35.961Z,121.32
2023-01-18T16:04:12.168Z,129.93
2023-01-18T16:06:40.779Z,126.05
2023-01-18T16:09:12.906Z,123.38
2023-01-18T16:11:41.408Z,120.63
2023-01-18T16:14:38.623Z,127.38
2023-01-18T16:17:20.378Z,117.22
2023-01-18T16:19:57.873Z,127.55
2023-01-18T16:22:36.818Z,124.18
2023-01-18T16:25:10.753Z,129.48
2023-01-18T16:27:54.096Z,129.73
2023-01-18T16:30:34.240Z,126.20
2023-01-18T16:33:18.048Z,125.00
2023-01-18T16:35:46.415Z,126.68
2023-01-18T16:38:16.691Z,127.45
2023-01-18T16:40:47.385Z,126.55
2023-01-18T16:43:18.741Z,125.15
2023-01-18T16:45:48.913Z,124.00
2023-01-18T16:48:26.360Z,138.90
2023-01-18T16:50:56.417Z,130.68
2023-01-18T16:53:24.835Z,137.93
2023-01-18T16:55:52.597Z,126.90
2023-01-18T16:58:21.783Z,125.38
2023-01-18T17:01:01.115Z,141.95
2023-01-18T17:03:29.731Z,124.18
2023-01-18T17:05:57.701Z,126.93
2023-01-18T17:08:25.944Z,129.05
2023-01-18T17:10:55.057Z,126.65
2023-01-18T17:13:24.115Z,124.38
2023-01-18T17:15:53.781Z,178.27
2023-01-18T17:18:26.051Z,200.00
2023-01-18T17:20:55.375Z,131.98
2023-01-18T17:23:26.003Z,119.55
2023-01-18T17:25:56.650Z,123.13
2023-01-18T17:28:27.781Z,122.72
2023-01-18T17:30:57.006Z,122.05
2023-01-18T17:33:27.541Z,117.88
2023-01-18T17:35:56.011Z,120.47
2023-01-18T17:38:28.236Z,119.45
2023-01-18T17:40:58.791Z,116.80
2023-01-18T17:43:35.057Z,121.03
2023-01-18T17:46:04.662Z,123.75
2023-01-18T17:48:33.546Z,118.53
2023-01-18T17:51:01.857Z,123.90
2023-01-18T17:53:30.350Z,133.05
2023-01-18T17:55:58.376Z,123.00
2023-01-18T17:58:28.000Z,166.60
2023-01-18T18:00:55.923Z,133.40
2023-01-18T18:03:24.458Z,131.10
2023-01-18T18:05:58.472Z,125.18
2023-01-18T18:08:27.319Z,125.28
2023-01-18T18:10:55.802Z,128.93
2023-01-18T18:13:24.751Z,134.48
2023-01-18T18:15:54.804Z,137.15
2023-01-18T18:18:25.086Z,131.02
2023-01-18T18:21:01.459Z,125.00
2023-01-18T18:23:32.415Z,138.60
2023-01-18T18:26:01.825Z,136.05
2023-01-18T18:28:30.799Z,134.75
2023-01-18T18:30:59.772Z,126.07
2023-01-18T18:33:29.678Z,125.22
2023-01-18T18:35:59.395Z,137.48
2023-01-18T18:38:27.760Z,135.07
2023-01-18T18:41:07.435Z,135.70
2023-01-18T18:43:36.460Z,135.88
2023-01-18T18:46:04.419Z,140.52
2023-01-18T18:48:32.750Z,139.93
2023-01-18T18:51:00.939Z,138.90
2023-01-18T18:53:37.638Z,147.13
2023-01-18T18:56:09.926Z,128.30
2023-01-18T18:58:42.638Z,138.65
2023-01-18T19:01:30.580Z,141.85
2023-01-18T19:03:59.604Z,136.18
2023-01-18T19:06:28.710Z,137.50
2023-01-18T19:08:57.635Z,140.90
2023-01-18T19:11:26.892Z,145.38
2023-01-18T19:13:57.013Z,140.98
2023-01-18T19:16:26.252Z,145.88
2023-01-18T19:18:55.096Z,149.70
2023-01-18T19:21:23.092Z,141.23
2023-01-18T19:23:51.927Z,141.98
2023-01-18T19:26:20.052Z,143.52
2023-01-18T19:28:48.572Z,148.98
2023-01-18T19:31:16.736Z,138.48
2023-01-18T19:33:45.041Z,146.13
2023-01-18T19:36:15.780Z,143.50
2023-01-18T19:38:48.040Z,132.05
2023-01-18T19:41:19.403Z,134.90
2023-01-18T19:43:51.116Z,130.65
2023-01-18T19:46:20.744Z,147.30
2023-01-18T19:48:49.206Z,133.45
2023-01-18T19:51:22.458Z,135.75
2023-01-18T19:53:56.070Z,131.25
2023-01-18T19:56:29.314Z,133.52
2023-01-18T19:58:58.156Z,129.43
2023-01-18T20:01:36.238Z,128.98
2023-01-18T20:04:08.389Z,134.00
2023-01-18T20:06:40.113Z,132.40
2023-01-18T20:09:18.393Z,132.65
2023-01-18T20:11:47.564Z,133.95
2023-01-18T20:14:16.805Z,135.00
2023-01-18T20:16:46.309Z,137.80
2023-01-18T20:19:16.665Z,134.60
2023-01-18T20:21:44.619Z,136.20
2023-01-18T20:24:13.201Z,134.90
2023-01-18T20:26:42.175Z,134.10
2023-01-18T20:29:13.461Z,133.70
2023-01-18T20:31:48.487Z,129.02
2023-01-18T20:36:50.608Z,133.45
2023-01-18T20:39:20.825Z,125.72
2023-01-18T20:41:50.314Z,136.93
2023-01-18T20:44:19.474Z,128.75
2023-01-18T20:46:49.821Z,131.48
2023-01-18T20:49:24.521Z,138.50
2023-01-18T20:51:53.184Z,146.32
2023-01-18T20:54:22.087Z,146.20
2023-01-18T20:56:51.527Z,141.30
2023-01-18T20:59:21.087Z,146.13
2023-01-18T21:01:49.117Z,147.68
2023-01-18T21:04:17.427Z,145.60
2023-01-18T21:06:46.816Z,138.68
2023-01-18T21:09:15.094Z,137.25
2023-01-18T21:11:43.143Z,139.70
2023-01-18T21:14:12.049Z,139.50
2023-01-18T21:16:40.303Z,141.95
2023-01-18T21:19:10.536Z,131.68
2023-01-18T21:21:39.477Z,129.50
2023-01-18T21:24:08.051Z,134.57
2023-01-18T21:26:36.711Z,131.68
2023-01-18T21:29:06.455Z,136.40
2023-01-18T21:31:35.601Z,137.23
2023-01-18T21:34:05.087Z,137.02
2023-01-18T21:36:32.956Z,125.38
2023-01-18T21:39:01.204Z,130.38
2023-01-18T21:41:47.681Z,128.15
2023-01-18T21:44:34.267Z,132.32
2023-01-18T21:47:02.525Z,128.75
2023-01-18T21:50:15.904Z,125.00
2023-01-18T21:52:57.321Z,128.82
2023-01-18T21:55:26.210Z,118.72
2023-01-18T21:58:12.586Z,127.65
2023-01-18T22:00:41.377Z,120.15
2023-01-18T22:03:10.092Z,117.43
2023-01-18T22:05:40.888Z,124.70
2023-01-18T22:08:10.542Z,121.38
2023-01-18T22:10:40.807Z,112.55
2023-01-18T22:13:08.749Z,120.53
2023-01-18T22:15:37.040Z,117.72
2023-01-18T22:18:06.170Z,120.82
2023-01-18T22:20:34.414Z,121.20
2023-01-18T22:23:02.650Z,120.95
2023-01-18T22:25:32.563Z,119.18
2023-01-18T22:28:01.141Z,120.03
2023-01-18T22:30:30.849Z,131.48
2023-01-18T22:32:58.902Z,128.98
2023-01-18T22:35:27.162Z,131.73
2023-01-18T22:37:55.066Z,133.15
2023-01-18T22:40:23.215Z,140.40
2023-01-18T22:42:52.362Z,139.20
2023-01-18T22:45:21.834Z,139.65
2023-01-18T22:47:50.723Z,136.48
2023-01-18T22:50:19.975Z,147.10
2023-01-18T22:52:48.165Z,138.57
2023-01-18T22:55:17.541Z,141.68
2023-01-18T22:57:45.431Z,139.63
2023-01-18T23:00:14.065Z,138.82
2023-01-18T23:02:42.045Z,138.35
2023-01-18T23:05:10.323Z,137.15
2023-01-18T23:07:38.907Z,128.75
2023-01-18T23:10:07.242Z,122.85
2023-01-18T23:12:35.346Z,134.90
2023-01-18T23:15:21.804Z,131.65
2023-01-18T23:17:50.284Z,128.73
2023-01-18T23:20:20.123Z,128.30
2023-01-18T23:22:48.175Z,132.73
2023-01-18T23:25:16.838Z,122.07
2023-01-18T23:27:45.044Z,130.20
2023-01-18T23:30:14.340Z,125.28
2023-01-18T23:32:42.541Z,137.43
2023-01-18T23:35:11.203Z,135.20
2023-01-18T23:37:39.269Z,130.30
2023-01-18T23:40:27.219Z,129.80
2023-01-18T23:43:13.646Z,131.82
2023-01-18T23:48:48.937Z,133.52
2023-01-18T23:51:35.807Z,138.40
2023-01-18T23:54:19.087Z,140.05
2023-01-18T23:56:48.167Z,139.88
2023-01-18T23:59:15.993Z,144.52
